Data for 11/22/2007

Time Sea-Level Adjusted Pressure Absolute Pressure Temperature Relative Humidity Dew Point   
(mb) (inHg) (mb) (inHg) (C) (F) (%) (C) (F)
00:05 1027 30.33 856 25.28 -13.3 8.1 82 -15.7 3.7
00:10 1027 30.33 856 25.28 -13.2 8.2 83 -15.6 4
00:15 1027 30.33 856 25.28 -12.8 9 81 -15.3 4.4
00:20 1027 30.33 856 25.28 -12.4 9.7 79 -15.4 4.3
00:25 1027 30.33 856 25.28 -12.7 9.1 82 -15.2 4.7
00:30 1027 30.33 856 25.28 -12.9 8.7 81 -15.5 4
00:35 1027 30.33 856 25.28 -12.8 8.9 81 -15.4 4.2
00:40 1027 30.33 856 25.28 -12.9 8.9 82 -15.3 4.4
00:45 1027 30.33 856 25.28 -12.8 9 80 -15.5 4.1
00:50 1027 30.33 856 25.28 -13.1 8.4 83 -15.5 4.1
00:55 1027 30.33 856 25.28 -13 8.5 80 -15.8 3.6
01:00 1027 30.33 856 25.28 -13.1 8.4 83 -15.5 4.1
01:05 1027 30.33 856 25.28 -12.9 8.8 81 -15.5 4
01:10 1027 30.33 856 25.28 -12.7 9.2 79 -15.5 4.1
01:15 1027 30.33 856 25.28 -12.6 9.3 78 -15.7 3.7
01:20 1027 30.33 856 25.28 -12.3 9.9 76 -15.7 3.8
01:25 1027 30.33 856 25.28 -12 10.4 74 -15.7 3.8
01:30 1027 30.33 856 25.28 -12 10.5 76 -15.4 4.2
01:35 1027 30.33 856 25.28 -12.4 9.6 78 -15.5 4
01:40 1027 30.33 856 25.28 -12.9 8.9 82 -15.3 4.5
01:45 1027 30.33 856 25.28 -12.8 9.1 82 -15.3 4.5
01:50 1027 30.33 856 25.28 -12.6 9.4 81 -15.2 4.6
01:55 1027 30.33 856 25.28 -12.8 9 81 -15.5 4.2
02:00 1027 30.33 856 25.28 -13.1 8.5 80 -15.8 3.6
02:05 1027 30.33 856 25.28 -13.4 7.8 82 -15.8 3.5
02:10 1027 30.33 856 25.28 -13.5 7.6 83 -15.9 3.4
02:15 1027 30.33 856 25.28 -13.3 8 82 -15.8 3.5
02:20 1027 30.33 856 25.28 -13 8.6 81 -15.7 3.8
02:25 1027 30.33 856 25.28 -13.2 8.3 82 -15.7 3.7
02:30 1027 30.33 856 25.28 -13.4 8 81 -16 3.2
02:35 1027 30.33 856 25.28 -13.5 7.7 83 -15.8 3.5
02:40 1027 30.33 856 25.28 -13.4 7.8 83 -15.7 3.8
02:45 1027 30.33 856 25.28 -13.3 8.1 82 -15.7 3.7
02:50 1027 30.33 856 25.28 -13.3 8 82 -15.9 3.5
02:55 1027 30.33 856 25.28 -13.6 7.5 84 -15.7 3.7
03:00 1027 30.33 856 25.28 -13.8 7.3 85 -15.8 3.6
03:05 1027 30.33 856 25.28 -13.7 7.3 83 -16 3.2
03:10 1027 30.33 856 25.28 -13.6 7.5 82 -16 3.2
03:15 1027 30.33 856 25.28 -13.6 7.5 80 -16.3 2.7
03:20 1027 30.33 856 25.28 -13.7 7.3 82 -16.2 2.9
03:25 1027 30.33 856 25.28 -13.8 7.2 82 -16.2 2.8
03:30 1027 30.33 856 25.28 -13.8 7.2 83 -16.1 3
03:35 1027 30.33 856 25.28 -13.7 7.3 82 -16.2 2.9
03:40 1027 30.33 856 25.28 -13.6 7.4 82 -16.2 2.9
03:45 1027 30.33 856 25.28 -13.9 7 83 -16.2 2.8
03:50 1027 30.33 856 25.28 -13.9 6.9 82 -16.3 2.6
03:55 1027 30.33 856 25.28 -13.9 7 82 -16.3 2.6
04:00 1027 30.33 856 25.28 -14 6.7 83 -16.3 2.6
04:05 1027 30.33 856 25.28 -14.1 6.6 84 -16.3 2.7
04:10 1027 30.33 856 25.28 -13.9 7 82 -16.3 2.6
04:15 1027 30.33 856 25.28 -13.9 6.9 82 -16.3 2.7
04:20 1027 30.33 856 25.28 -13.9 6.9 83 -16.2 2.8
04:25 1027 30.33 856 25.28 -13.9 6.9 83 -16.3 2.7
04:30 1027 30.33 856 25.28 -13.9 7.1 83 -16.2 2.9
04:35 1027 30.33 857 25.31 -13.6 7.4 82 -16.1 3.1
04:40 1027 30.33 857 25.31 -13.6 7.6 83 -15.9 3.4
04:45 1027 30.33 857 25.31 -13.5 7.8 80 -16.2 2.9
04:50 1027 30.33 857 25.31 -13.4 7.8 80 -16.2 2.8
04:55 1027 30.33 857 25.31 -13.7 7.4 80 -16.4 2.5
05:00 1027 30.33 856 25.28 -14.1 6.5 82 -16.6 2.1
05:05 1027 30.33 856 25.28 -14.2 6.4 83 -16.5 2.3
05:10 1027 30.33 856 25.28 -14.3 6.2 85 -16.3 2.6
05:15 1027 30.33 856 25.28 -14.1 6.7 81 -16.7 2
05:20 1027 30.33 856 25.28 -14.3 6.4 83 -16.6 2.2
05:25 1027 30.33 856 25.28 -14.4 6.1 82 -16.8 1.8
05:30 1027 30.33 856 25.28 -14.6 5.8 84 -16.7 1.9
05:35 1027 30.33 856 25.28 -14.5 5.8 83 -16.8 1.7
05:40 1027 30.33 856 25.28 -14.6 5.7 83 -16.9 1.6
05:45 1027 30.33 856 25.28 -14.6 5.7 84 -16.8 1.7
05:50 1027 30.33 856 25.28 -14.5 6 82 -16.9 1.6
05:55 1027 30.33 856 25.28 -14.6 5.6 82 -17 1.3
06:00 1027 30.33 856 25.28 -14.7 5.5 82 -17.1 1.2
06:05 1027 30.33 856 25.28 -14.6 5.6 83 -16.9 1.5
06:10 1027 30.33 856 25.28 -14.7 5.6 84 -16.9 1.7
06:15 1027 30.33 856 25.28 -14.5 6 83 -16.8 1.8
06:20 1027 30.33 856 25.28 -14.2 6.4 82 -16.6 2.2
06:25 1027 30.33 856 25.28 -14.1 6.6 82 -16.6 2.1
06:30 1027 30.33 856 25.28 -14.4 6.1 82 -16.8 1.7
06:35 1027 30.33 856 25.28 -14.8 5.3 84 -17 1.4
06:40 1027 30.33 856 25.28 -14.9 5.3 83 -17.1 1.3
06:45 1027 30.33 856 25.28 -14.7 5.5 83 -17 1.4
06:50 1027 30.33 856 25.28 -14.7 5.5 83 -16.9 1.5
06:55 1027 30.33 856 25.28 -14.7 5.6 83 -16.9 1.6
07:00 1027 30.33 856 25.28 -14.6 5.8 83 -16.9 1.7
07:05 1027 30.33 856 25.28 -14.4 6.1 82 -16.8 1.8
07:10 1027 30.33 856 25.28 -14.3 6.3 82 -16.7 1.9
07:15 1027 30.33 856 25.28 -14.2 6.5 82 -16.7 2
07:20 1027 30.33 856 25.28 -14 6.9 82 -16.4 2.4
07:25 1027 30.33 856 25.28 -13.5 7.7 80 -16.2 2.8
07:30 1027 30.33 856 25.28 -13.4 7.8 80 -16.1 2.9
07:35 1027 30.33 856 25.28 -13.5 7.8 80 -16.2 2.9
07:40 1027 30.33 856 25.28 -13.3 8.1 80 -16.1 3
07:45 1027 30.33 856 25.28 -13.3 8.1 80 -16.1 3
07:50 1027 30.33 856 25.28 -13.2 8.2 79 -16.1 3.1
07:55 1027 30.33 856 25.28 -13.2 8.2 79 -16.1 3
08:00 1027 30.33 856 25.28 -13.2 8.3 77 -16.4 2.6
08:05 1027 30.33 856 25.28 -13.6 7.6 78 -16.6 2.1
08:10 1027 30.33 856 25.28 -13.6 7.6 78 -16.7 1.9
08:15 1027 30.33 856 25.28 -13.5 7.7 77 -16.7 1.9
08:20 1027 30.33 856 25.28 -13.3 8 76 -16.7 1.9
08:25 1027 30.33 856 25.28 -13.1 8.5 75 -16.6 2.2
08:30 1027 30.33 856 25.28 -12.6 9.3 74 -16.4 2.5
08:35 1027 30.33 856 25.28 -12.1 10.2 72 -16.1 2.9
08:40 1027 30.33 856 25.28 -11.7 10.9 71 -16 3.3
08:45 1027 30.33 856 25.28 -11.7 11 71 -16 3.2
08:50 1027 30.33 856 25.28 -11.5 11.4 69 -16 3.2
08:55 1027 30.33 856 25.28 -11.2 11.9 69 -15.9 3.4
09:00 1027 30.33 857 25.31 -10.9 12.4 68 -15.7 3.7
09:05 1027 30.33 857 25.31 -10.8 12.6 66 -16 3.2
09:10 1027 30.33 857 25.31 -10.9 12.4 67 -15.9 3.4
09:15 1027 30.33 857 25.31 -10.8 12.5 67 -15.8 3.6
09:20 1027 30.33 857 25.31 -10.8 12.7 66 -15.9 3.5
09:25 1027 30.33 857 25.31 -10.4 13.2 66 -15.7 3.7
09:30 1027 30.33 857 25.31 -10 14.1 64 -15.6 3.9
09:35 1027 30.33 857 25.31 -9.6 14.7 62 -15.5 4
09:40 1027 30.33 857 25.31 -9.5 14.9 64 -15.2 4.7
09:45 1028 30.36 857 25.31 -9.2 15.4 62 -15.2 4.6
09:50 1028 30.36 857 25.31 -8.9 16 61 -15.2 4.6
09:55 1028 30.36 857 25.31 -8.8 16.1 61 -15 5
10:00 1028 30.36 857 25.31 -8.7 16.3 61 -15 5
10:05 1028 30.36 857 25.31 -8.3 17 60 -14.7 5.5
10:10 1028 30.36 857 25.31 -8.8 16.3 62 -14.9 5.2
10:15 1028 30.36 857 25.31 -9.3 15.3 65 -14.8 5.4
10:20 1028 30.36 857 25.31 -9.2 15.4 62 -15.2 4.7
10:25 1028 30.36 857 25.31 -8.4 16.9 61 -14.7 5.5
10:30 1028 30.36 857 25.31 -7.4 18.7 57 -14.5 5.9
10:35 1028 30.36 857 25.31 -7.1 19.3 56 -14.5 5.9
10:40 1028 30.36 857 25.31 -7.5 18.5 59 -14.2 6.4
10:45 1027 30.33 857 25.31 -7.2 19 57 -14.5 6
10:50 1027 30.33 857 25.31 -7 19.3 57 -14.2 6.5
10:55 1027 30.33 857 25.31 -6.9 19.5 58 -13.9 7.1
11:00 1027 30.33 857 25.31 -7.7 18.1 62 -13.8 7.2
11:05 1027 30.33 857 25.31 -7.7 18.2 60 -14.2 6.4
11:10 1027 30.33 856 25.28 -7.4 18.7 60 -13.8 7.1
11:15 1027 30.33 856 25.28 -7.3 18.8 58 -14.1 6.5
11:20 1027 30.33 856 25.28 -7.3 18.9 59 -14.1 6.7
11:25 1027 30.33 856 25.28 -7.2 19 60 -13.8 7.2
11:30 1027 30.33 856 25.28 -7 19.4 59 -13.8 7.2
11:35 1027 30.33 856 25.28 -6.5 20.4 58 -13.4 7.9
11:40 1027 30.33 856 25.28 -7 19.4 62 -13.1 8.5
11:45 1027 30.33 856 25.28 -6.8 19.7 58 -13.7 7.4
11:50 1027 30.33 856 25.28 -6.5 20.3 58 -13.4 7.9
11:55 1027 30.33 856 25.28 -6.2 20.8 59 -13.1 8.5
12:00 1027 30.33 856 25.28 -6.3 20.6 57 -13.5 7.8
12:05 1026 30.3 856 25.28 -6.8 19.7 61 -13.2 8.3
12:10 1026 30.3 856 25.28 -7.1 19.2 57 -14.1 6.5
12:15 1026 30.3 855 25.25 -7.2 19 59 -13.9 7
12:20 1026 30.3 855 25.25 -7.5 18.6 61 -13.8 7.1
12:25 1026 30.3 855 25.25 -7.1 19.2 58 -13.9 6.9
12:30 1026 30.3 855 25.25 -6.4 20.4 56 -13.8 7.2
12:35 1026 30.3 855 25.25 -6 21.1 54 -13.8 7.1
12:40 1026 30.3 855 25.25 -5.8 21.6 54 -13.6 7.6
12:45 1026 30.3 855 25.25 -5.7 21.7 54 -13.5 7.6
12:50 1026 30.3 855 25.25 -6.7 20 59 -13.5 7.7
12:55 1026 30.3 855 25.25 -6.9 19.6 57 -14.1 6.6
13:00 1026 30.3 855 25.25 -7.1 19.3 59 -13.8 7.2
13:05 1026 30.3 855 25.25 -6.8 19.8 59 -13.6 7.5
13:10 1026 30.3 855 25.25 -6.9 19.5 59 -13.6 7.5
13:15 1026 30.3 855 25.25 -6.8 19.7 58 -13.8 7.1
13:20 1026 30.3 855 25.25 -6.1 21 54 -14 6.7
13:25 1026 30.3 855 25.25 -5.7 21.7 54 -13.7 7.4
13:30 1026 30.3 855 25.25 -5.5 22.1 52 -13.9 7
13:35 1026 30.3 855 25.25 -6.5 20.3 59 -13.2 8.2
13:40 1026 30.3 855 25.25 -7 19.4 56 -14.3 6.2
13:45 1026 30.3 855 25.25 -5.8 21.6 51 -14.3 6.3
13:50 1026 30.3 855 25.25 -7 19.4 59 -13.7 7.3
13:55 1025 30.27 855 25.25 -7.8 18 60 -14.3 6.3
14:00 1025 30.27 855 25.25 -7 19.4 55 -14.6 5.7
14:05 1025 30.27 855 25.25 -5.9 21.5 53 -14.1 6.7
14:10 1025 30.27 855 25.25 -5.8 21.5 55 -13.5 7.8
14:15 1025 30.27 855 25.25 -5.9 21.4 53 -13.9 6.9
14:20 1025 30.27 855 25.25 -5.8 21.6 54 -13.6 7.5
14:25 1025 30.27 854 25.22 -6.9 19.6 59 -13.6 7.6
14:30 1025 30.27 855 25.25 -7.3 18.8 59 -14.2 6.5
14:35 1025 30.27 855 25.25 -6.7 20 55 -14.4 6.1
14:40 1025 30.27 855 25.25 -7.6 18.2 60 -14.1 6.7
14:45 1025 30.27 855 25.25 -8.2 17.2 61 -14.5 5.8
14:50 1025 30.27 855 25.25 -8.4 16.9 62 -14.5 5.8
14:55 1025 30.27 855 25.25 -7.9 17.8 60 -14.4 6.1
15:00 1025 30.27 855 25.25 -7.4 18.7 57 -14.5 6
15:05 1025 30.27 854 25.22 -7.3 18.8 59 -14 6.8
15:10 1025 30.27 854 25.22 -8.1 17.5 62 -14.2 6.5
15:15 1025 30.27 854 25.22 -7.9 17.8 60 -14.4 6
15:20 1025 30.27 854 25.22 -7.6 18.4 59 -14.2 6.5
15:25 1025 30.27 854 25.22 -7.6 18.3 58 -14.4 6
15:30 1025 30.27 854 25.22 -8 17.6 61 -14.2 6.5
15:35 1025 30.27 854 25.22 -8.2 17.2 60 -14.6 5.7
15:40 1025 30.27 854 25.22 -8.7 16.4 63 -14.4 6
15:45 1025 30.27 854 25.22 -9 15.8 65 -14.5 5.9
15:50 1025 30.27 854 25.22 -8.8 16.1 63 -14.7 5.6
15:55 1025 30.27 854 25.22 -8.9 16 65 -14.4 6.1
16:00 1025 30.27 854 25.22 -8.8 16.1 64 -14.5 5.9
16:05 1025 30.27 854 25.22 -8.8 16.2 64 -14.4 6.1
16:10 1025 30.27 854 25.22 -9.2 15.5 66 -14.5 5.9
16:15 1025 30.27 854 25.22 -9.3 15.4 65 -14.7 5.6
16:20 1025 30.27 854 25.22 -8.7 16.4 63 -14.5 5.8
16:25 1025 30.27 854 25.22 -8.4 16.9 63 -14.2 6.4
16:30 1025 30.27 854 25.22 -8.7 16.3 65 -14.1 6.6
16:35 1025 30.27 854 25.22 -8.8 16.1 65 -14.3 6.3
16:40 1025 30.27 854 25.22 -9 15.9 68 -13.9 6.9
16:45 1025 30.27 854 25.22 -9.6 14.7 70 -14.1 6.6
16:50 1025 30.27 854 25.22 -10 14 70 -14.5 6
16:55 1025 30.27 854 25.22 -10.4 13.3 72 -14.5 6
17:00 1025 30.27 854 25.22 -10.7 12.8 74 -14.5 6
17:05 1025 30.27 854 25.22 -10.6 13 73 -14.5 5.8
17:10 1025 30.27 854 25.22 -10.5 13.1 73 -14.4 6
17:15 1025 30.27 854 25.22 -10.8 12.6 76 -14.3 6.3
17:20 1025 30.27 854 25.22 -11 12.3 75 -14.6 5.8
17:25 1025 30.27 854 25.22 -11.1 12.1 77 -14.4 6.1
17:30 1025 30.27 854 25.22 -11.2 11.9 77 -14.4 6.1
17:35 1025 30.27 854 25.22 -11.2 11.9 77 -14.4 6.1
17:40 1025 30.27 854 25.22 -11.3 11.7 76 -14.6 5.6
17:45 1025 30.27 854 25.22 -11.3 11.7 77 -14.6 5.7
17:50 1025 30.27 854 25.22 -11.3 11.6 78 -14.5 6
17:55 1025 30.27 854 25.22 -11.5 11.3 78 -14.6 5.8
18:00 1025 30.27 854 25.22 -11.7 11 80 -14.5 5.9
18:05 1025 30.27 854 25.22 -11.9 10.6 79 -14.8 5.4
18:10 1025 30.27 854 25.22 -12 10.4 78 -15.1 4.9
18:15 1025 30.27 854 25.22 -12.3 9.8 80 -15.1 4.8
18:20 1025 30.27 854 25.22 -12.9 8.9 83 -15.2 4.7
18:25 1025 30.27 854 25.22 -13.1 8.4 86 -15 5
18:30 1025 30.27 854 25.22 -12.9 8.7 85 -15 5
18:35 1025 30.27 855 25.25 -12.8 9 84 -14.9 5.1
18:40 1025 30.27 855 25.25 -12.7 9.1 84 -14.9 5.2
18:45 1025 30.27 855 25.25 -12.7 9.2 83 -15 5
18:50 1025 30.27 855 25.25 -12.5 9.6 82 -14.9 5.2
18:55 1025 30.27 855 25.25 -12.4 9.7 81 -15.1 4.9
19:00 1026 30.3 855 25.25 -12.6 9.4 79 -15.5 4.2
19:05 1026 30.3 855 25.25 -13 8.5 82 -15.5 4
19:10 1026 30.3 855 25.25 -13.2 8.3 82 -15.6 3.8
19:15 1026 30.3 855 25.25 -13.2 8.2 80 -16.1 3.1
19:20 1026 30.3 855 25.25 -13.5 7.7 84 -15.6 3.9
19:25 1026 30.3 855 25.25 -13.3 8 85 -15.3 4.4
19:30 1026 30.3 855 25.25 -13.1 8.4 82 -15.6 3.9
19:35 1026 30.3 855 25.25 -13.4 7.9 82 -15.8 3.5
19:40 1026 30.3 855 25.25 -14.3 6.2 87 -16.1 3.1
19:45 1026 30.3 855 25.25 -14.5 5.9 86 -16.3 2.7
19:50 1026 30.3 855 25.25 -14.7 5.5 90 -16 3.2
19:55 1026 30.3 855 25.25 -14.6 5.8 89 -16 3.3
20:00 1026 30.3 855 25.25 -14.4 6.1 88 -15.9 3.4
20:05 1026 30.3 855 25.25 -14.1 6.7 87 -15.8 3.5
20:10 1026 30.3 855 25.25 -14 6.8 90 -15.4 4.3
20:15 1026 30.3 855 25.25 -13.6 7.5 87 -15.4 4.3
20:20 1026 30.3 855 25.25 -13.2 8.2 84 -15.3 4.4
20:25 1026 30.3 855 25.25 -13.2 8.3 85 -15.3 4.5
20:30 1026 30.3 855 25.25 -13.2 8.2 85 -15.3 4.5
20:35 1026 30.3 855 25.25 -13.3 8.1 85 -15.3 4.4
20:40 1026 30.3 855 25.25 -13.4 7.8 84 -15.6 4
20:45 1026 30.3 855 25.25 -14 6.9 86 -15.8 3.5
20:50 1026 30.3 855 25.25 -14 6.8 85 -16 3.2
20:55 1026 30.3 855 25.25 -14.2 6.4 86 -16.1 3
21:00 1026 30.3 855 25.25 -13.8 7.1 85 -15.9 3.4
21:05 1025 30.27 855 25.25 -13.2 8.2 84 -15.3 4.4
21:10 1025 30.27 855 25.25 -12.9 8.8 82 -15.4 4.3
21:15 1025 30.27 855 25.25 -12.8 9 81 -15.4 4.3
21:20 1025 30.27 854 25.22 -13 8.7 83 -15.3 4.5
21:25 1025 30.27 854 25.22 -13 8.7 84 -15.1 4.9
21:30 1025 30.27 854 25.22 -13.1 8.4 81 -15.8 3.6
21:35 1025 30.27 854 25.22 -13.6 7.6 83 -15.9 3.3
21:40 1025 30.27 854 25.22 -13.9 7 85 -15.9 3.4
21:45 1025 30.27 854 25.22 -13.9 6.9 85 -15.9 3.4
21:50 1025 30.27 854 25.22 -13.7 7.4 83 -15.9 3.3
21:55 1025 30.27 854 25.22 -13.9 7 84 -16 3.2
22:00 1025 30.27 854 25.22 -14 6.8 85 -16 3.3
22:05 1025 30.27 854 25.22 -13.8 7.2 84 -15.9 3.3
22:10 1025 30.27 854 25.22 -13.6 7.5 84 -15.8 3.6
22:15 1025 30.27 854 25.22 -13.4 7.9 83 -15.6 3.9
22:20 1025 30.27 854 25.22 -13.2 8.3 82 -15.6 4
22:25 1025 30.27 854 25.22 -13 8.6 82 -15.5 4
22:30 1025 30.27 854 25.22 -13 8.6 82 -15.5 4
22:35 1025 30.27 854 25.22 -13.1 8.3 82 -15.7 3.8
22:40 1025 30.27 854 25.22 -13.2 8.2 83 -15.6 4
22:45 1025 30.27 854 25.22 -12.8 8.9 82 -15.3 4.5
22:50 1025 30.27 854 25.22 -12.8 9 82 -15.2 4.7
22:55 1025 30.27 854 25.22 -12.8 9 82 -15.2 4.6
23:00 1025 30.27 854 25.22 -12.7 9.1 82 -15.2 4.6
23:05 1025 30.27 854 25.22 -12.8 9 81 -15.4 4.3
23:10 1025 30.27 854 25.22 -12.9 8.7 82 -15.4 4.2
23:15 1025 30.27 854 25.22 -13.5 7.8 83 -15.7 3.7
23:20 1025 30.27 855 25.25 -13.9 7.1 84 -16.1 3.1
23:25 1025 30.27 854 25.22 -14.2 6.5 85 -16.2 2.9
23:30 1025 30.27 854 25.22 -14.3 6.2 85 -16.3 2.6
23:35 1025 30.27 854 25.22 -14.6 5.7 85 -16.5 2.2
23:40 1025 30.27 854 25.22 -14.8 5.3 90 -16.1 2.9
23:45 1025 30.27 855 25.25 -14.5 6 84 -16.5 2.2
23:50 1025 30.27 854 25.22 -14.6 5.8 84 -16.7 1.9
23:55 1025 30.27 854 25.22 -14.8 5.4 86 -16.6 2
24:00 1025 30.27 855 25.25 -14.6 5.7 84 -16.7 1.9